Time;durP1;ratioP1;P1;durP2;ratioP2;P2;SDS_P1;SDS_P2;PMS_P1;PMS_P2;Temp;Humidity;BMP_temperature;BMP_pressure;BME280_temperature;BME280_humidity;BME280_pressure;Samples;Min_cycle;Max_cycle;Signal;HPM_P1;HPM_P2
2022/02/08 00:02:08;;;;;;;4.90;1.77;;;;;;;3.41;82.14;101853.00;5033844;28;20202;-77
2022/02/08 00:04:35;;;;;;;7.70;1.83;;;;;;;3.47;82.01;101850.63;5033969;28;20257;-77
2022/02/08 00:07:05;;;;;;;5.60;1.90;;;;;;;3.42;81.80;101854.78;5033920;28;20209;-77
2022/02/08 00:09:32;;;;;;;3.47;1.20;;;;;;;3.44;82.16;101847.97;5033604;28;20206;-77
2022/02/08 00:11:59;;;;;;;4.37;1.57;;;;;;;3.33;81.32;101856.25;5032470;28;20218;-76
2022/02/08 00:14:25;;;;;;;3.47;1.60;;;;;;;3.32;81.98;101863.91;5033539;28;20198;-76
2022/02/08 00:16:55;;;;;;;4.13;1.60;;;;;;;3.34;82.78;101842.50;5033569;28;20260;-77
2022/02/08 00:19:22;;;;;;;6.33;1.57;;;;;;;3.44;82.96;101835.06;5025250;28;20636;-77
2022/02/08 00:21:48;;;;;;;3.13;1.20;;;;;;;3.31;83.11;101829.50;5033203;28;20672;-77
2022/02/08 00:24:15;;;;;;;6.97;1.93;;;;;;;3.44;83.18;101825.59;5033389;28;20778;-77
2022/02/08 00:26:41;;;;;;;3.87;2.00;;;;;;;3.42;83.29;101816.06;5033541;28;20210;-77
2022/02/08 00:29:08;;;;;;;6.53;1.87;;;;;;;3.30;84.08;101803.63;5033763;28;20292;-77
2022/02/08 00:31:34;;;;;;;10.30;2.37;;;;;;;3.40;84.01;101790.19;5032514;28;20280;-76
2022/02/08 00:34:03;;;;;;;3.73;1.80;;;;;;;3.34;84.99;101767.66;5033041;28;20284;-78
2022/02/08 00:36:30;;;;;;;3.97;1.80;;;;;;;3.32;85.26;101769.31;5033192;28;20214;-76
2022/02/08 00:38:56;;;;;;;2.97;1.60;;;;;;;3.34;84.57;101765.06;5033714;28;20206;-77
2022/02/08 00:41:25;;;;;;;5.27;2.00;;;;;;;3.37;84.67;101756.56;5032655;28;20263;-78
2022/02/08 00:43:57;;;;;;;7.40;2.10;;;;;;;3.34;84.54;101762.50;5033142;28;20230;-77
2022/02/08 00:46:31;;;;;;;4.20;2.10;;;;;;;3.29;85.49;101753.75;5032762;28;20202;-77
2022/02/08 00:49:00;;;;;;;5.67;1.83;;;;;;;3.31;85.41;101746.94;5024754;28;20198;-77
2022/02/08 00:51:39;;;;;;;8.87;2.30;;;;;;;3.38;85.13;101745.41;5032507;28;20214;-78
2022/02/08 00:54:05;;;;;;;4.83;1.73;;;;;;;3.44;84.26;101745.59;5032852;28;20785;-77
2022/02/08 00:56:32;;;;;;;4.63;2.50;;;;;;;3.49;84.15;101769.84;5033060;28;20202;-77
2022/02/08 00:58:58;;;;;;;4.80;2.00;;;;;;;3.52;84.17;101763.91;5032775;28;20587;-77
2022/02/08 01:01:24;;;;;;;3.80;2.10;;;;;;;3.62;84.63;101770.22;5032495;28;20210;-77
2022/02/08 01:03:51;;;;;;;7.77;2.60;;;;;;;3.66;84.05;101775.53;5032757;28;20839;-77
2022/02/08 01:06:20;;;;;;;6.17;2.90;;;;;;;3.63;83.82;101769.38;5032336;28;20748;-77
2022/02/08 01:09:06;;;;;;;11.47;3.33;;;;;;;3.70;83.54;101790.28;5033025;28;20212;-77
2022/02/08 01:11:32;;;;;;;6.83;3.27;;;;;;;3.72;82.98;101786.03;5032454;28;20214;-77
2022/02/08 01:13:59;;;;;;;4.80;3.50;;;;;;;3.78;82.98;101790.53;5032649;28;20222;-77
2022/02/08 01:16:27;;;;;;;10.30;3.57;;;;;;;3.81;82.02;101806.13;5032509;28;20650;-78
2022/02/08 01:18:56;;;;;;;11.83;4.43;;;;;;;3.84;82.04;101821.69;5024463;28;20198;-77
2022/02/08 01:21:23;;;;;;;6.33;4.47;;;;;;;3.85;81.20;101840.69;5032230;28;20210;-77
2022/02/08 01:23:51;;;;;;;8.80;4.57;;;;;;;3.89;81.79;101834.78;5031957;28;20324;-76
2022/02/08 01:26:19;;;;;;;6.97;4.77;;;;;;;3.86;81.78;101834.66;5032386;28;20206;-75
2022/02/08 01:28:51;;;;;;;6.10;4.03;;;;;;;3.91;82.37;101821.06;5032502;28;20627;-78
2022/02/08 01:31:21;;;;;;;9.43;4.73;;;;;;;3.93;82.44;101826.28;5032309;28;20222;-77
2022/02/08 01:36:48;;;;;;;6.87;3.77;;;;;;;4.02;82.01;101823.09;5031984;28;20623;-78
2022/02/08 01:39:23;;;;;;;8.30;4.03;;;;;;;4.03;81.68;101832.63;5032212;28;20205;-77
2022/02/08 01:42:03;;;;;;;8.37;4.33;;;;;;;4.08;81.27;101842.25;5032138;28;20200;-77
2022/02/08 01:44:35;;;;;;;6.97;4.43;;;;;;;4.12;81.62;101835.47;5031948;28;20583;-77
2022/02/08 01:47:09;;;;;;;10.83;4.37;;;;;;;4.11;81.80;101824.25;5031775;28;20206;-77
2022/02/08 01:49:43;;;;;;;10.67;4.80;;;;;;;4.18;81.82;101817.56;5025298;28;20194;-76
2022/02/08 01:52:09;;;;;;;7.27;5.10;;;;;;;4.20;81.76;101807.25;5032174;28;20190;-77
2022/02/08 01:54:37;;;;;;;9.80;5.37;;;;;;;4.20;81.83;101810.72;5031699;28;20259;-76
2022/02/08 01:57:04;;;;;;;7.03;5.07;;;;;;;4.17;81.71;101805.47;5031808;28;20210;-77
2022/02/08 01:59:30;;;;;;;6.67;3.93;;;;;;;4.16;81.39;101808.88;5031783;28;20202;-77
2022/02/08 02:01:56;;;;;;;6.57;4.63;;;;;;;4.19;81.70;101816.72;5031581;28;20569;-77
2022/02/08 02:04:23;;;;;;;11.37;4.90;;;;;;;4.22;81.64;101796.13;5031974;28;20229;-77
2022/02/08 02:06:50;;;;;;;8.80;5.30;;;;;;;4.18;81.98;101797.78;5031918;28;20200;-77
2022/02/08 02:09:16;;;;;;;6.47;4.73;;;;;;;4.25;82.49;101770.38;5031413;28;20206;-76
2022/02/08 02:11:44;;;;;;;7.80;4.63;;;;;;;4.25;82.32;101780.72;5031810;28;20566;-76
2022/02/08 02:14:10;;;;;;;12.30;4.47;;;;;;;4.35;82.17;101779.28;5031578;28;20704;-77
2022/02/08 02:16:49;;;;;;;8.33;4.60;;;;;;;4.41;82.28;101769.09;5031549;28;20667;-76
2022/02/08 02:19:16;;;;;;;10.77;5.47;;;;;;;4.35;82.38;101764.63;5023128;28;20201;-77
2022/02/08 02:21:43;;;;;;;8.77;4.37;;;;;;;4.42;82.69;101770.88;5031268;28;20795;-77
2022/02/08 02:24:10;;;;;;;9.50;5.37;;;;;;;4.49;82.98;101751.22;5031213;28;20698;-77
2022/02/08 02:26:37;;;;;;;7.33;4.53;;;;;;;4.53;82.87;101745.31;5031684;28;20821;-76
2022/02/08 02:29:03;;;;;;;9.60;4.37;;;;;;;4.58;82.90;101739.44;5031535;28;20206;-78
2022/02/08 02:31:30;;;;;;;6.93;4.50;;;;;;;4.60;83.25;101747.22;5031333;28;20210;-77
2022/02/08 02:33:56;;;;;;;7.47;3.77;;;;;;;4.54;82.58;101741.91;5031127;28;20286;-77
2022/02/08 02:36:22;;;;;;;8.67;4.23;;;;;;;4.52;82.94;101740.94;5035238;28;20628;-77
2022/02/08 02:38:49;;;;;;;8.73;3.90;;;;;;;4.59;82.79;101745.47;5034953;28;20309;-76
2022/02/08 02:41:17;;;;;;;12.27;4.47;;;;;;;4.64;83.13;101748.16;5039616;28;20214;-76
2022/02/08 02:43:45;;;;;;;10.90;3.80;;;;;;;4.66;83.36;101731.88;5043263;28;20230;-78
2022/02/08 02:46:11;;;;;;;9.50;4.27;;;;;;;4.69;83.14;101731.06;5038232;28;20264;-78
2022/02/08 02:48:37;;;;;;;14.23;3.90;;;;;;;4.73;83.60;101728.59;5027861;28;20614;-77
2022/02/08 02:51:04;;;;;;;8.17;3.63;;;;;;;4.69;83.20;101729.34;5034996;28;20239;-77
2022/02/08 02:53:30;;;;;;;9.90;3.60;;;;;;;4.67;83.42;101728.44;5034716;28;20226;-78
2022/02/08 02:55:57;;;;;;;8.80;3.63;;;;;;;4.72;83.87;101729.44;5034997;28;20206;-76
2022/02/08 02:58:29;;;;;;;8.63;3.47;;;;;;;4.79;83.62;101722.69;5033975;28;20212;-76
2022/02/08 03:01:11;;;;;;;7.17;3.43;;;;;;;4.70;83.61;101723.34;5034301;28;20268;-76
2022/02/08 03:03:50;;;;;;;10.20;3.80;;;;;;;4.69;83.81;101707.78;5034882;28;20231;-78
2022/02/08 03:17:36;;;;;;;6.13;3.57;;;;;;;4.70;85.81;101657.84;5033071;28;20324;-77
2022/02/08 03:20:04;;;;;;;7.20;3.50;;;;;;;4.73;86.51;101632.88;5034204;28;20690;-77
2022/02/08 03:22:32;;;;;;;13.20;4.03;;;;;;;4.59;87.34;101611.00;5034241;28;20259;-78
2022/02/08 03:24:58;;;;;;;9.17;3.70;;;;;;;4.61;87.84;101570.53;5034448;28;20227;-77
2022/02/08 03:27:24;;;;;;;8.83;4.37;;;;;;;4.63;88.37;101549.88;5034433;28;20206;-76
2022/02/08 03:29:52;;;;;;;8.77;4.27;;;;;;;4.67;89.13;101551.72;5033829;28;20203;-77
2022/02/08 03:32:20;;;;;;;8.77;4.33;;;;;;;4.55;90.27;101539.38;5033956;28;20228;-77
2022/02/08 03:34:46;;;;;;;13.80;4.80;;;;;;;4.49;90.84;101506.47;5034207;28;20191;-77
2022/02/08 03:37:13;;;;;;;9.57;3.80;;;;;;;4.53;91.36;101479.84;5034224;28;20211;-77
2022/02/08 03:39:42;;;;;;;5.10;3.60;;;;;;;4.60;91.70;101460.19;5033717;28;20217;-76
2022/02/08 03:42:17;;;;;;;8.10;4.33;;;;;;;4.58;92.31;101446.38;5033945;28;20298;-77
2022/02/08 03:44:46;;;;;;;9.83;4.60;;;;;;;4.57;92.90;101429.94;5027346;28;20216;-77
2022/02/08 03:47:15;;;;;;;8.27;4.33;;;;;;;4.50;93.42;101406.50;5032245;28;20217;-77
2022/02/08 03:49:42;;;;;;;8.57;4.53;;;;;;;4.50;93.91;101384.16;5033880;28;20291;-77
2022/02/08 03:52:08;;;;;;;6.57;4.13;;;;;;;4.55;94.16;101381.66;5033688;28;20252;-77
2022/02/08 03:54:35;;;;;;;8.53;4.80;;;;;;;4.63;94.01;101374.06;5033795;28;20202;-77
2022/02/08 03:57:06;;;;;;;7.03;4.80;;;;;;;4.55;94.18;101368.72;5033259;28;20202;-77
2022/02/08 03:59:33;;;;;;;7.50;3.70;;;;;;;4.63;94.28;101371.47;5033552;28;20636;-77
2022/02/08 04:02:28;;;;;;;6.97;4.23;;;;;;;4.56;94.42;101357.56;5034413;28;20256;-77
2022/02/08 04:05:00;;;;;;;4.33;3.63;;;;;;;4.46;95.33;101340.06;5034263;28;20250;-78
2022/02/08 04:07:33;;;;;;;5.50;3.90;;;;;;;4.56;95.35;101327.38;5034006;28;20194;-78
2022/02/08 04:10:02;;;;;;;4.30;3.90;;;;;;;4.63;95.38;101325.78;5033925;28;20282;-78
2022/02/08 04:12:38;;;;;;;7.93;3.90;;;;;;;4.62;95.45;101318.00;5034049;28;20226;-78
2022/02/08 04:15:22;;;;;;;5.17;3.40;;;;;;;4.66;95.58;101324.97;5025545;28;20203;-78
2022/02/08 04:18:14;;;;;;;6.60;3.93;;;;;;;4.60;95.71;101317.97;5017030;28;20191;-78
2022/02/08 04:34:41;;;;;;;4.47;3.30;;;;;;;4.68;95.69;101302.63;5003914;28;20286;-77
2022/02/08 04:40:34;;;;;;;4.97;3.27;;;;;;;4.64;96.07;101296.50;5002955;28;20208;-78
2022/02/08 04:43:11;;;;;;;4.00;3.20;;;;;;;4.67;96.33;101278.44;5003734;28;20219;-78
2022/02/08 04:45:44;;;;;;;4.87;3.40;;;;;;;4.69;96.56;101271.59;5006840;28;20622;-77
2022/02/08 04:48:23;;;;;;;6.43;3.90;;;;;;;4.64;96.32;101280.09;5006531;28;20202;-78
2022/02/08 04:50:54;;;;;;;4.60;3.70;;;;;;;4.66;96.57;101250.88;5004079;28;20191;-78
2022/02/08 04:53:32;;;;;;;4.93;4.10;;;;;;;4.68;97.61;101233.66;5003241;28;20595;-77
2022/02/08 04:56:06;;;;;;;4.40;4.07;;;;;;;4.70;97.64;101223.34;5003098;28;20291;-78
2022/02/08 04:58:40;;;;;;;4.10;3.70;;;;;;;4.76;97.45;101220.88;5002014;28;20287;-78
2022/02/08 05:01:13;;;;;;;4.80;4.40;;;;;;;4.62;97.84;101212.88;5001323;28;20295;-78
2022/02/08 05:34:45;;;;;;;4.70;4.30;;;;;;;4.78;100.00;101144.19;5072091;22;20310;-78
2022/02/08 05:43:02;;;;;;;4.20;3.90;;;;;;;4.87;100.00;101122.75;5051128;28;20665;-78
2022/02/08 05:45:32;;;;;;;5.07;4.73;;;;;;;4.92;100.00;101108.19;5051427;28;20649;-78
2022/02/08 05:48:04;;;;;;;4.93;4.53;;;;;;;4.93;100.00;101115.94;5051360;28;20207;-79
2022/02/08 05:50:41;;;;;;;4.90;4.50;;;;;;;4.88;100.00;101108.97;5050423;28;20316;-78
2022/02/08 05:53:25;;;;;;;4.47;4.17;;;;;;;4.96;100.00;101097.88;5050327;28;20637;-78
2022/02/08 05:55:51;;;;;;;4.10;3.70;;;;;;;4.96;100.00;101097.03;5051111;28;20267;-78
2022/02/08 05:58:18;;;;;;;4.13;3.83;;;;;;;4.97;100.00;101088.41;5050860;28;20206;-78
2022/02/08 06:00:44;;;;;;;4.50;4.10;;;;;;;4.99;100.00;101081.53;5050938;28;20608;-81
2022/02/08 06:03:12;;;;;;;4.17;3.87;;;;;;;5.00;100.00;101078.13;5050404;28;20235;-77
2022/02/08 06:05:39;;;;;;;4.57;4.17;;;;;;;4.98;100.00;101074.63;5050761;28;20206;-79
2022/02/08 06:08:06;;;;;;;3.70;3.40;;;;;;;5.04;100.00;101077.31;5050106;28;20671;-78
2022/02/08 06:10:34;;;;;;;3.97;3.67;;;;;;;5.08;100.00;101076.50;5050381;28;20273;-77
2022/02/08 06:13:01;;;;;;;3.87;3.27;;;;;;;5.13;100.00;101077.44;5050268;28;20222;-78
2022/02/08 06:15:27;;;;;;;3.00;2.80;;;;;;;5.18;100.00;101073.19;5050742;28;20337;-78
2022/02/08 06:17:56;;;;;;;3.70;3.40;;;;;;;5.13;100.00;101067.09;5050433;28;20755;-78
2022/02/08 06:20:24;;;;;;;2.97;2.67;;;;;;;5.17;100.00;101068.88;5050421;28;20610;-78
2022/02/08 06:22:51;;;;;;;3.00;2.70;;;;;;;5.16;100.00;101080.06;5050181;28;20710;-78
2022/02/08 06:25:18;;;;;;;3.10;2.90;;;;;;;5.07;100.00;101084.22;5050408;28;20260;-79
2022/02/08 06:27:48;;;;;;;3.30;3.00;;;;;;;5.06;100.00;101065.25;5050201;28;20299;-79
2022/02/08 06:30:15;;;;;;;2.83;2.63;;;;;;;5.08;100.00;101053.22;5050311;28;20235;-80
2022/02/08 06:32:42;;;;;;;3.63;3.23;;;;;;;5.09;100.00;101043.72;5052086;28;20203;-80
2022/02/08 06:35:14;;;;;;;3.40;3.20;;;;;;;5.16;100.00;101050.72;5050578;28;20206;-79
2022/02/08 06:37:42;;;;;;;5.20;4.80;;;;;;;5.16;100.00;101056.75;5050651;28;20290;-79
2022/02/08 06:40:10;;;;;;;4.40;4.10;;;;;;;5.23;100.00;101046.50;5049456;28;20289;-79
2022/02/08 06:42:37;;;;;;;4.30;4.00;;;;;;;5.25;100.00;101049.97;5038153;28;20207;-79
2022/02/08 06:45:06;;;;;;;5.07;4.67;;;;;;;5.31;100.00;101044.84;5037092;28;20210;-78
2022/02/08 06:47:33;;;;;;;7.10;6.50;;;;;;;5.33;100.00;101028.53;5036256;28;20549;-79
2022/02/08 06:49:59;;;;;;;6.30;5.80;;;;;;;5.38;100.00;101046.69;5036404;28;20224;-79
2022/02/08 06:52:26;;;;;;;6.60;6.00;;;;;;;5.45;100.00;101066.63;5036637;28;20619;-79
2022/02/08 06:54:54;;;;;;;7.20;6.60;;;;;;;5.49;100.00;101075.28;5036943;28;20207;-78
2022/02/08 06:57:21;;;;;;;7.87;7.27;;;;;;;5.52;100.00;101076.19;5037177;28;20212;-79
2022/02/08 06:59:51;;;;;;;9.03;8.13;;;;;;;5.53;100.00;101071.88;5036107;28;20684;-79
2022/02/08 07:02:18;;;;;;;10.13;9.33;;;;;;;5.56;100.00;101070.19;5036421;28;20247;-79
2022/02/08 07:04:45;;;;;;;17.83;16.33;;;;;;;5.62;100.00;101076.31;5036051;28;20238;-78
2022/02/08 07:07:12;;;;;;;13.23;12.03;;;;;;;5.63;100.00;101084.09;5036584;28;20208;-79
2022/02/08 07:09:39;;;;;;;11.07;9.97;;;;;;;5.66;100.00;101088.44;5035736;28;20230;-79
2022/02/08 07:12:09;;;;;;;10.63;9.73;;;;;;;5.68;100.00;101087.59;5036681;28;20206;-79
2022/02/08 07:14:35;;;;;;;11.10;10.00;;;;;;;5.71;100.00;101089.38;5036642;28;20378;-79
2022/02/08 07:17:01;;;;;;;12.13;10.93;;;;;;;5.70;100.00;101098.00;5036796;28;20269;-79
2022/02/08 07:19:28;;;;;;;11.27;10.27;;;;;;;5.70;100.00;101105.75;5036272;28;20660;-79
2022/02/08 07:21:54;;;;;;;13.07;11.87;;;;;;;5.72;100.00;101091.09;5036705;28;20214;-79
2022/02/08 07:24:21;;;;;;;12.53;11.43;;;;;;;5.77;100.00;101092.91;5036032;28;20230;-79
2022/02/08 07:26:50;;;;;;;13.03;11.83;;;;;;;5.77;100.00;101090.31;5036745;28;20670;-79
2022/02/08 07:29:19;;;;;;;18.47;12.90;;;;;;;5.81;100.00;101093.81;5036679;28;20213;-76
2022/02/08 07:31:51;;;;;;;13.27;12.17;;;;;;;5.85;100.00;101100.75;5033942;28;20227;-75
2022/02/08 07:34:21;;;;;;;13.13;11.77;;;;;;;5.89;100.00;101109.44;5033491;28;20720;-76
2022/02/08 07:36:54;;;;;;;13.57;12.37;;;;;;;5.89;100.00;101106.84;5033561;28;20272;-75
2022/02/08 07:39:26;;;;;;;14.63;13.13;;;;;;;5.94;100.00;101112.94;5033237;28;20634;-74
2022/02/08 07:41:52;;;;;;;15.10;13.77;;;;;;;5.96;100.00;101108.66;5033708;28;20198;-75
2022/02/08 07:44:20;;;;;;;14.87;13.40;;;;;;;6.02;100.00;101116.50;5033269;28;20281;-74
2022/02/08 07:46:46;;;;;;;16.20;14.77;;;;;;;6.01;100.00;101107.00;5033411;28;20563;-75
2022/02/08 07:49:13;;;;;;;15.77;14.33;;;;;;;6.03;100.00;101117.41;5033091;28;20202;-75
2022/02/08 07:51:41;;;;;;;16.23;14.63;;;;;;;6.02;100.00;101121.69;5033074;28;20638;-76
2022/02/08 07:54:08;;;;;;;17.23;15.50;;;;;;;6.02;100.00;101110.47;5032537;28;20323;-74
2022/02/08 07:56:34;;;;;;;21.63;14.53;;;;;;;6.08;100.00;101107.94;5033274;28;20204;-75
2022/02/08 07:59:02;;;;;;;16.80;15.07;;;;;;;6.11;100.00;101111.44;5033305;28;20210;-78
2022/02/08 08:01:30;;;;;;;18.27;15.53;;;;;;;6.14;100.00;101103.69;5032854;28;20748;-75
2022/02/08 08:03:57;;;;;;;18.07;16.33;;;;;;;6.14;100.00;101113.16;5032948;28;20236;-74
2022/02/08 08:06:23;;;;;;;21.17;16.63;;;;;;;6.15;100.00;101094.19;5033208;28;20212;-75
2022/02/08 08:08:51;;;;;;;18.27;16.33;;;;;;;6.15;100.00;101089.00;5033226;28;20211;-75
2022/02/08 08:11:21;;;;;;;20.23;18.03;;;;;;;6.19;100.00;101076.94;5032606;28;20701;-75
2022/02/08 08:13:51;;;;;;;20.47;17.20;;;;;;;6.20;100.00;101086.44;5032864;28;20239;-75
2022/02/08 08:16:27;;;;;;;21.23;17.57;;;;;;;6.23;100.00;101078.72;5032621;28;20745;-74
2022/02/08 08:19:01;;;;;;;18.63;16.80;;;;;;;6.30;100.00;101080.47;5032964;28;20220;-74
2022/02/08 08:21:29;;;;;;;19.93;17.63;;;;;;;6.27;100.00;101088.25;5012956;28;20294;-74
2022/02/08 08:23:55;;;;;;;22.53;17.43;;;;;;;6.34;100.00;101092.63;5013048;28;20241;-74
2022/02/08 08:26:22;;;;;;;23.53;17.63;;;;;;;6.35;100.00;101095.22;5012982;28;20750;-75
2022/02/08 08:28:49;;;;;;;21.77;19.10;;;;;;;6.31;100.00;101093.47;5012907;28;20204;-74
2022/02/08 08:31:15;;;;;;;19.40;17.37;;;;;;;6.38;100.00;101106.50;5012902;28;20228;-74
2022/02/08 08:33:43;;;;;;;22.90;18.43;;;;;;;6.43;100.00;101117.78;5012670;28;20236;-74
2022/02/08 08:36:12;;;;;;;22.73;19.13;;;;;;;6.45;100.00;101124.72;5013007;28;20207;-74
2022/02/08 08:38:38;;;;;;;28.83;22.47;;;;;;;6.47;100.00;101135.09;5012921;28;20275;-73
2022/02/08 08:41:18;;;;;;;23.40;19.57;;;;;;;6.48;100.00;101131.63;5015937;28;20199;-73
2022/02/08 08:49:49;;;;;;;19.27;17.20;;;;;;;6.64;100.00;101167.25;5030917;28;20252;-74
2022/02/08 08:52:23;;;;;;;20.17;17.53;;;;;;;6.69;100.00;101170.75;5030417;28;20258;-74
2022/02/08 08:54:49;;;;;;;20.67;17.77;;;;;;;6.75;100.00;101180.31;5029922;28;20216;-74
2022/02/08 08:57:15;;;;;;;21.47;17.80;;;;;;;6.80;100.00;101194.22;5032291;28;20203;-76
2022/02/08 08:59:42;;;;;;;22.27;17.80;;;;;;;6.87;100.00;101198.56;5033072;28;20200;-77
2022/02/08 09:02:08;;;;;;;19.67;17.63;;;;;;;6.95;100.00;101199.50;5032975;28;20204;-77
2022/02/08 09:04:40;;;;;;;21.10;17.33;;;;;;;6.99;100.00;101217.72;5032543;28;20223;-76
2022/02/08 09:07:07;;;;;;;21.53;17.73;;;;;;;7.00;99.84;101219.44;5029495;28;20570;-75
2022/02/08 09:09:37;;;;;;;19.80;16.37;;;;;;;7.00;99.38;101229.81;5031497;28;20208;-75
2022/02/08 09:12:17;;;;;;;18.43;16.53;;;;;;;7.07;99.65;101239.41;5031298;28;20224;-75
2022/02/08 09:14:55;;;;;;;18.03;16.33;;;;;;;7.09;98.37;101251.53;5031251;28;20216;-76
2022/02/08 09:26:00;;;;;;;19.20;16.47;;;;;;;7.30;97.07;101299.31;5030475;28;20585;-75
2022/02/08 09:28:40;;;;;;;19.83;17.73;;;;;;;7.33;96.80;101309.72;5029043;28;20235;-75
2022/02/08 09:31:09;;;;;;;21.27;16.50;;;;;;;7.39;96.68;101306.31;5028661;28;20220;-75
2022/02/08 09:33:36;;;;;;;21.20;17.57;;;;;;;7.43;96.27;101308.94;5030853;28;20721;-75
2022/02/08 09:36:03;;;;;;;20.37;17.57;;;;;;;7.44;96.23;101315.88;5031436;28;20246;-75
2022/02/08 09:38:31;;;;;;;21.07;16.43;;;;;;;7.43;96.27;101321.91;5031232;28;20204;-75
2022/02/08 09:41:00;;;;;;;17.90;16.20;;;;;;;7.51;95.78;101311.59;5031211;28;20203;-75
2022/02/08 09:43:28;;;;;;;19.30;17.37;;;;;;;7.55;96.20;101315.97;5031217;28;20224;-75
2022/02/08 09:45:55;;;;;;;18.23;16.10;;;;;;;7.59;95.74;101319.44;5031066;28;20250;-75
2022/02/08 09:48:29;;;;;;;18.23;16.47;;;;;;;7.61;95.37;101318.63;5030754;28;20266;-75
2022/02/08 09:50:56;;;;;;;16.73;15.20;;;;;;;7.63;95.71;101334.22;5031042;28;20726;-75
2022/02/08 09:53:30;;;;;;;18.53;16.83;;;;;;;7.68;94.95;101335.97;5030769;28;20220;-75
2022/02/08 09:55:57;;;;;;;16.93;15.43;;;;;;;7.72;95.32;101334.28;5031312;28;20282;-76
2022/02/08 09:58:24;;;;;;;16.93;15.40;;;;;;;7.69;94.80;101350.72;5030899;28;20200;-75
2022/02/08 10:01:02;;;;;;;18.97;15.73;;;;;;;7.72;94.31;101350.75;5030829;28;20201;-75
2022/02/08 10:03:28;;;;;;;16.13;14.83;;;;;;;7.73;94.55;101341.22;5028763;28;20271;-76
2022/02/08 10:05:56;;;;;;;17.17;14.57;;;;;;;7.78;94.08;101367.25;5031238;28;20199;-76
2022/02/08 10:08:23;;;;;;;15.97;14.57;;;;;;;7.77;94.36;101387.19;5030913;28;20592;-76
2022/02/08 10:10:50;;;;;;;16.80;15.23;;;;;;;7.80;94.38;101401.91;5030725;28;20583;-75
2022/02/08 10:13:37;;;;;;;15.53;14.00;;;;;;;7.86;93.91;101389.81;5031028;28;20275;-76
2022/02/08 10:21:46;;;;;;;16.27;14.67;;;;;;;7.88;93.44;101389.84;5034564;28;20723;-75
2022/02/08 10:24:14;;;;;;;16.77;15.33;;;;;;;7.85;93.63;101392.41;5034398;28;20895;-76
2022/02/08 10:26:52;;;;;;;15.03;13.70;;;;;;;7.92;94.15;101394.22;5034666;28;20213;-76
2022/02/08 10:29:25;;;;;;;16.40;14.67;;;;;;;8.00;93.71;101395.13;5034294;28;20238;-75
2022/02/08 10:32:16;;;;;;;17.33;14.80;;;;;;;8.10;93.79;101396.06;5032475;28;20595;-76
2022/02/08 10:37:44;;;;;;;14.73;13.37;;;;;;;8.15;92.53;101422.97;5007527;28;20203;-75
2022/02/08 10:40:12;;;;;;;14.50;13.20;;;;;;;8.17;92.58;101439.47;5031875;28;20196;-76
2022/02/08 10:42:42;;;;;;;15.80;14.30;;;;;;;8.13;92.91;101435.09;5034365;28;20217;-77
2022/02/08 10:45:21;;;;;;;13.13;12.03;;;;;;;8.10;92.26;101442.88;5031943;28;20201;-75
2022/02/08 10:47:53;;;;;;;13.77;12.40;;;;;;;8.13;92.81;101451.56;5031687;28;20209;-75
2022/02/08 10:50:20;;;;;;;11.00;9.90;;;;;;;8.09;92.53;101452.41;5033542;28;20202;-75
2022/02/08 10:52:47;;;;;;;13.93;12.57;;;;;;;8.10;92.46;101448.94;5031324;28;20229;-76
2022/02/08 10:55:24;;;;;;;12.60;11.03;;;;;;;8.10;92.45;101451.53;5034031;28;20202;-76
2022/02/08 10:57:59;;;;;;;12.33;11.33;;;;;;;8.12;92.59;101452.41;5032203;28;20197;-76
2022/02/08 11:00:32;;;;;;;14.27;12.70;;;;;;;8.14;92.69;101440.28;5031036;28;20209;-75
2022/02/08 11:03:04;;;;;;;13.10;12.00;;;;;;;8.15;92.92;101430.78;5033679;28;20218;-75
2022/02/08 11:05:43;;;;;;;14.07;12.73;;;;;;;8.18;92.79;101432.53;5031975;28;20213;-75
2022/02/08 11:08:20;;;;;;;13.57;12.17;;;;;;;8.20;92.56;101441.22;5031841;28;20299;-75
2022/02/08 11:13:47;;;;;;;12.80;11.77;;;;;;;8.13;92.74;101459.38;5022866;28;20703;-75
2022/02/08 11:16:23;;;;;;;14.07;12.87;;;;;;;8.16;92.86;101433.38;5033184;28;20209;-76
2022/02/08 11:19:08;;;;;;;12.07;11.13;;;;;;;8.16;92.55;101424.72;5031506;28;20205;-76
2022/02/08 11:21:48;;;;;;;11.73;10.63;;;;;;;8.22;91.64;101435.16;5031937;28;20251;-75
2022/02/08 11:24:24;;;;;;;11.50;10.50;;;;;;;8.28;91.71;101456.00;5032055;28;20239;-75
2022/02/08 11:26:56;;;;;;;12.83;11.67;;;;;;;8.29;91.15;101456.91;5031396;28;20795;-76
2022/02/08 11:29:26;;;;;;;13.07;12.07;;;;;;;8.31;91.19;101461.22;5033007;28;20208;-75
2022/02/08 11:32:00;;;;;;;12.97;11.77;;;;;;;8.28;92.07;101456.00;5033285;28;20282;-75
2022/02/08 11:46:02;;;;;;;11.57;10.50;;;;;;;8.26;92.20;101456.84;5030052;28;20208;-76
2022/02/08 11:48:50;;;;;;;11.50;10.63;;;;;;;8.34;92.05;101449.97;5035826;23;20261;-77
2022/02/08 11:54:23;;;;;;;11.93;10.93;;;;;;;8.30;92.15;101459.47;4973451;28;20921;-78
2022/02/08 11:57:26;;;;;;;12.37;11.37;;;;;;;8.32;91.68;101470.78;4974898;28;20293;-78
2022/02/08 12:00:10;;;;;;;13.40;12.20;;;;;;;8.28;92.76;101457.72;4973963;28;20237;-78
2022/02/08 12:02:46;;;;;;;12.97;11.87;;;;;;;8.25;93.39;101434.31;4974644;28;20222;-78
2022/02/08 12:05:24;;;;;;;12.43;11.23;;;;;;;8.22;93.12;101442.09;4974230;28;20206;-78
2022/02/08 12:07:57;;;;;;;12.57;11.37;;;;;;;8.24;92.79;101430.81;4974807;28;20259;-79
2022/02/08 12:10:27;;;;;;;12.20;11.20;;;;;;;8.28;92.34;101452.53;4973880;28;20250;-79
2022/02/08 12:13:14;;;;;;;13.00;11.90;;;;;;;8.33;91.75;101464.72;4976609;28;20238;-79
2022/02/08 12:32:22;;;;;;;14.13;12.30;;;;;;;8.40;92.16;101436.13;4967420;28;20224;-78
2022/02/08 12:55:12;;;;;;;12.80;11.07;;;;;;;8.62;92.50;101413.72;5140743;27;20548;-78
2022/02/08 12:57:49;;;;;;;13.13;12.03;;;;;;;8.61;91.17;101432.84;5138138;27;20240;-79
2022/02/08 13:00:27;;;;;;;12.20;11.17;;;;;;;8.62;92.10;101430.25;5136747;27;20221;-77
2022/02/08 13:03:14;;;;;;;12.90;11.80;;;;;;;8.68;92.11;101426.78;5147706;27;20222;-79
2022/02/08 13:14:50;;;;;;;11.93;10.93;;;;;;;8.65;91.92;101417.22;5140057;27;20208;-77
2022/02/08 13:20:15;;;;;;;14.97;13.63;;;;;;;8.62;91.56;101456.28;5133739;27;20733;-79
2022/02/08 14:04:23;;;;;;;21.00;19.17;;;;;;;8.57;95.49;101343.47;5125883;28;20802;-78
2022/02/08 14:06:57;;;;;;;19.63;18.13;;;;;;;8.54;95.27;101328.72;5111824;28;20567;-77
2022/02/08 14:09:38;;;;;;;21.50;19.10;;;;;;;8.58;95.63;101336.50;5111866;28;20233;-78
2022/02/08 14:15:09;;;;;;;18.57;17.00;;;;;;;8.54;95.35;101331.31;5094449;28;20239;-78
2022/02/08 14:17:52;;;;;;;20.07;18.37;;;;;;;8.60;95.43;101340.84;5111944;28;20205;-78
2022/02/08 14:20:46;;;;;;;22.50;17.70;;;;;;;8.62;95.65;101335.66;5111180;28;20594;-77
2022/02/08 14:23:27;;;;;;;20.00;18.13;;;;;;;8.59;95.92;101335.66;5112179;28;20192;-78
2022/02/08 14:29:04;;;;;;;20.00;17.97;;;;;;;8.57;96.35;101320.03;5106647;27;20215;-77
2022/02/08 14:29:24;;;;;;;20.70;18.33;;;;;;;8.54;97.09;101310.50;5091280;28;20242;-78
2022/02/08 14:35:00;;;;;;;20.53;18.90;;;;;;;8.47;98.20;101274.03;5079351;28;20234;-78
2022/02/08 15:07:58;;;;;;;19.70;18.10;;;;;;;8.52;100.00;101208.16;5110933;28;20192;-78
2022/02/08 15:10:31;;;;;;;20.83;18.77;;;;;;;8.56;99.33;101232.41;5110350;28;20329;-78
2022/02/08 15:13:01;;;;;;;18.13;16.37;;;;;;;8.56;99.76;101232.41;5110469;28;20190;-78
2022/02/08 15:15:33;;;;;;;18.70;16.97;;;;;;;8.47;99.81;101246.28;5110414;28;20628;-77
2022/02/08 15:17:59;;;;;;;17.37;15.90;;;;;;;8.54;99.54;101255.84;5109276;28;20205;-77
2022/02/08 15:20:27;;;;;;;16.90;15.70;;;;;;;8.50;99.29;101250.63;5110056;28;20618;-78
2022/02/08 15:22:57;;;;;;;17.43;15.93;;;;;;;8.48;99.92;101249.75;5110308;28;20205;-78
2022/02/08 15:25:25;;;;;;;18.20;16.60;;;;;;;8.47;99.51;101243.69;5109251;28;20209;-79
2022/02/08 15:27:52;;;;;;;17.43;15.80;;;;;;;8.48;99.91;101242.81;5089961;28;20264;-77
2022/02/08 15:30:18;;;;;;;15.80;14.30;;;;;;;8.45;99.80;101244.56;5089742;28;20229;-76
2022/02/08 15:32:46;;;;;;;17.33;15.90;;;;;;;8.49;99.33;101246.28;5089940;28;20689;-78
2022/02/08 15:35:12;;;;;;;16.87;15.57;;;;;;;8.45;99.58;101242.81;5089905;28;20235;-78